North Central West Virginia Airport
KCKB : now visible

Airfield :











YOU CAN JOIN US ON...

 
LOGIN :

Register | Disclaimer

   EN    FR    IT 

 









Legend :    VFR   Marginal VFR   IFR   Intensive IFR   Very Intensive IFR
Visi :
Ceiling :
>= 8 km
>= 3000ft
5 to 8 km
1000 to 3000 ft
1500m to 5 km
500 to 1000 ft
800 to 1500m
200 to 500 ft
< 800m
< 200 ft
Symbols :   Thunderstorms  Fog  Heavy snow  Heavy precipitations  Wind > 20 kt






- Airport Elevation : 1217 ft
- IATA code : CKB


KCKB - North Central West Virginia

CURRENT METAR :
  • 261153Z 16003KT 10SM CLR 09/09 A3010 RMK AO2 SLP187 70001 T00890089 10117 20078 53011

EXPIRED METARs :
  • 261053Z AUTO 17003KT 9SM CLR 08/08 A3009 RMK AO2 SLP183 T00830078 TSNO
  • 261027Z AUTO 19003KT 3/4SM BR CLR 08/08 A3008 RMK AO2 VIS 1/4V4 T00780078 TSNO RVRNO
  • 261022Z AUTO 19003KT 2SM BR CLR 09/09 A3008 RMK AO2 VIS 1 1/4V4 T00890089 TSNO
  • 260953Z AUTO 00000KT 7SM CLR 09/09 A3007 RMK AO2 SLP177 T00890089 TSNO
  • 260934Z AUTO 00000KT 4SM BR CLR 09/08 A3007 RMK AO2 T00890083 TSNO
  • 260927Z AUTO 00000KT 2SM BR CLR 09/08 A3007 RMK AO2 T00890078 TSNO
  • 260905Z AUTO 19003KT 3/4SM BR CLR 09/09 A3007 RMK AO2 T00890089 TSNO RVRNO

TAF KCKB
Valid from the 26 at 12:00 until the 27 at 12:00 UTC


261139Z 2612/2712 00000KT 3/4SM BR FEW150
FM261300 23005KT 6SM BR FEW200
FM261400 23005KT P6SM FEW200
FM261600 25008G15KT P6SM FEW250
FM262300 23005KT P6SM SKC
KZOB FIR / North America



MET'MAP, your aeronautical weather chart ! - Copyright ORBIFLY December 2007 - Disclaimer

ORBIFLY MET'MAP TEAM :

Programming & Development : Alexandra Zaïnal
Concept & original design : Baudouin d'Aumeries
Assistance for programming : Marc-Olivier Méhu
Technical & hardware support : Manuel Goepfert

Contact : metmap@orbifly.com




SOURCES & CREDITS :

   NOAA       Earth
Advisory